createdAt,value
2022-08-21T07:46:49.592Z,54.076
2022-08-21T07:47:58.192Z,54.567001
2022-08-21T07:49:07.805Z,55.077999
2022-08-21T07:50:16.388Z,55.256001
2022-08-21T07:51:24.999Z,55.243
2022-08-21T07:52:33.563Z,55.286999
2022-08-21T07:53:42.154Z,55.495998
2022-08-21T07:54:51.735Z,55.375999
2022-08-21T07:56:00.306Z,55.165001
2022-08-21T07:57:08.870Z,55.165001
2022-08-21T07:58:18.436Z,55.398998
2022-08-21T07:59:26.995Z,55.327
2022-08-21T08:00:36.567Z,55.263
2022-08-21T08:01:45.198Z,55.196999
2022-08-21T08:02:53.688Z,55.053001
2022-08-21T08:04:03.277Z,54.852001
2022-08-21T08:05:10.828Z,54.914001
2022-08-21T08:06:19.391Z,55.112
2022-08-21T08:07:28.020Z,55.300999
2022-08-21T08:08:36.562Z,55.256001
2022-08-21T08:09:45.109Z,55.194
2022-08-21T08:10:53.659Z,55.198002
2022-08-21T08:12:02.208Z,55.243
2022-08-21T08:13:11.754Z,55.313
2022-08-21T08:14:19.325Z,55.259998
2022-08-21T08:15:27.851Z,55.030998
2022-08-21T08:16:38.418Z,55.02
2022-08-21T08:17:46.976Z,54.973
2022-08-21T08:18:55.539Z,55.126999
2022-08-21T08:20:04.153Z,55.16
2022-08-21T08:21:12.687Z,55.168999
2022-08-21T08:22:22.243Z,55.084
2022-08-21T08:23:30.852Z,55.029999
2022-08-21T08:24:38.472Z,55.179001
2022-08-21T08:25:47.975Z,55.229
2022-08-21T08:26:56.636Z,54.992001
2022-08-21T08:28:06.436Z,54.877998
2022-08-21T08:29:16.727Z,54.571999
2022-08-21T08:30:28.919Z,54.367001
2022-08-21T08:31:36.799Z,54.382
2022-08-21T08:32:44.351Z,54.483002
2022-08-21T08:33:51.948Z,54.422001
2022-08-21T08:35:01.540Z,54.088001
2022-08-21T08:36:10.209Z,53.728001
2022-08-21T08:37:18.758Z,53.819
2022-08-21T08:38:29.398Z,54.59
2022-08-21T08:39:38.034Z,55.172001
2022-08-21T08:40:47.498Z,55.087002
2022-08-21T08:41:57.931Z,55.321999
2022-08-21T08:43:03.570Z,55.112999
2022-08-21T08:44:13.138Z,54.900002
2022-08-21T08:45:21.676Z,54.948002
2022-08-21T08:46:31.341Z,55.074001
2022-08-21T08:47:39.912Z,54.965
2022-08-21T08:48:52.925Z,54.852001
2022-08-21T08:49:59.003Z,54.747002
2022-08-21T08:51:08.554Z,54.888
2022-08-21T08:52:17.143Z,54.743
2022-08-21T08:53:26.725Z,54.713001
2022-08-21T08:54:35.270Z,54.577
2022-08-21T08:55:44.871Z,54.375
2022-08-21T08:56:54.427Z,54.347
2022-08-21T08:58:01.983Z,54.279999
2022-08-21T08:59:10.532Z,54.255001
2022-08-21T09:00:20.090Z,54.323002
2022-08-21T09:01:28.755Z,54.150002
2022-08-21T09:02:38.209Z,54.117001
2022-08-21T09:03:47.780Z,54.237
2022-08-21T09:04:56.329Z,54.257999
2022-08-21T09:06:04.941Z,54.512001
2022-08-21T09:07:14.597Z,54.771
2022-08-21T09:08:23.165Z,54.847
2022-08-21T09:09:32.718Z,54.807999
2022-08-21T09:10:41.273Z,54.688
2022-08-21T09:11:51.858Z,54.723999
2022-08-21T09:13:00.741Z,54.577999
2022-08-21T09:14:09.027Z,54.487
2022-08-21T09:15:18.562Z,54.386002
2022-08-21T09:16:26.107Z,54.301998
2022-08-21T09:17:33.667Z,53.877998
2022-08-21T09:18:43.237Z,53.598999
2022-08-21T09:19:51.893Z,53.742001
2022-08-21T09:21:00.455Z,53.812
2022-08-21T09:22:08.993Z,53.849998
2022-08-21T09:23:17.547Z,53.849998
2022-08-21T09:24:27.103Z,53.832001
2022-08-21T09:25:34.650Z,53.805
2022-08-21T09:26:43.198Z,53.792999
2022-08-21T09:27:52.736Z,53.789001
2022-08-21T09:29:02.293Z,53.758999
2022-08-21T09:30:10.839Z,53.442001
2022-08-21T09:31:19.379Z,53.448002
2022-08-21T09:32:36.647Z,53.395
2022-08-21T09:33:39.500Z,53.334999
2022-08-21T09:34:47.031Z,53.354
2022-08-21T09:35:54.636Z,53.398998
2022-08-21T09:37:04.441Z,53.442001
2022-08-21T09:38:12.985Z,53.561001
2022-08-21T09:39:22.611Z,53.028
2022-08-21T09:40:31.199Z,52.304001
2022-08-21T09:41:39.762Z,52.028999
2022-08-21T09:42:49.322Z,51.943001
2022-08-21T09:43:57.896Z,51.842999
2022-08-21T09:45:06.434Z,52.583
2022-08-21T09:46:15.991Z,52.616001
2022-08-21T09:47:26.820Z,52.844002
2022-08-21T09:48:34.077Z,52.988998
2022-08-21T09:49:42.616Z,53.02
2022-08-21T09:50:51.167Z,52.931
2022-08-21T09:52:00.720Z,52.693001
2022-08-21T09:53:08.336Z,52.498001
2022-08-21T09:54:15.888Z,52.598
2022-08-21T09:55:25.452Z,52.748001
2022-08-21T09:56:33.979Z,52.504002
2022-08-21T09:57:46.752Z,52.154999
2022-08-21T09:58:54.195Z,52.276001
2022-08-21T10:00:03.772Z,52.421001
2022-08-21T10:01:14.364Z,52.588001
2022-08-21T10:02:21.852Z,52.666
2022-08-21T10:03:29.407Z,52.335999
2022-08-21T10:04:38.977Z,52.342999
2022-08-21T10:05:47.521Z,52.144001
2022-08-21T10:06:58.155Z,51.942001
2022-08-21T10:08:06.763Z,52.254002
2022-08-21T10:09:20.002Z,51.985001
2022-08-21T10:10:26.817Z,52.280998
2022-08-21T10:11:34.498Z,52.262001
2022-08-21T10:12:43.096Z,52.243999
2022-08-21T10:13:52.998Z,51.655998
2022-08-21T10:15:05.330Z,52.110001
2022-08-21T10:16:13.194Z,52.151001
2022-08-21T10:17:22.817Z,52.202
2022-08-21T10:18:31.370Z,52.171001
2022-08-21T10:19:41.044Z,52.238998
2022-08-21T10:20:49.642Z,52.02
2022-08-21T10:21:57.206Z,52.083
2022-08-21T10:23:06.843Z,52.296001
2022-08-21T10:24:19.986Z,52.419998
2022-08-21T10:25:26.934Z,52.419998
2022-08-21T10:26:35.514Z,52.509998
2022-08-21T10:27:44.105Z,52.48
2022-08-21T10:28:53.666Z,52.380001
2022-08-21T10:30:01.235Z,52.522999
2022-08-21T10:31:09.866Z,52.368
2022-08-21T10:32:26.179Z,52.030998
2022-08-21T10:33:28.987Z,52.088001
2022-08-21T10:34:38.528Z,52.134998
2022-08-21T10:35:47.075Z,52.265999
2022-08-21T10:36:55.654Z,52.241001
2022-08-21T10:38:05.505Z,52.129002
2022-08-21T10:39:35.349Z,51.828999
2022-08-21T10:40:22.759Z,51.884998
2022-08-21T10:41:32.254Z,52.221001
2022-08-21T10:42:41.923Z,52.202
2022-08-21T10:43:50.525Z,51.799
2022-08-21T10:44:59.205Z,51.555
2022-08-21T10:46:07.827Z,51.319
2022-08-21T10:47:17.483Z,51.463001
2022-08-21T10:48:26.211Z,51.352001
2022-08-21T10:49:34.769Z,51.487999
2022-08-21T10:50:45.348Z,51.805
2022-08-21T10:51:54.927Z,52.402
2022-08-21T10:53:04.610Z,52.285
2022-08-21T10:54:14.172Z,52.119999
2022-08-21T10:55:23.699Z,52.237999
2022-08-21T10:56:32.434Z,52.278999
2022-08-21T10:57:42.133Z,51.831001
2022-08-21T10:58:51.690Z,51.483002
2022-08-21T11:00:00.442Z,51.823002
2022-08-21T11:01:10.097Z,51.417999
2022-08-21T11:02:19.648Z,50.638
2022-08-21T11:03:29.225Z,51.071999
2022-08-21T11:04:46.362Z,51.577999
2022-08-21T11:05:50.720Z,51.265999
2022-08-21T11:06:58.959Z,50.953999
2022-08-21T11:08:08.491Z,50.671001
2022-08-21T11:09:19.358Z,51.301998
2022-08-21T11:10:28.804Z,51.426998
2022-08-21T11:11:38.373Z,51.183998
2022-08-21T11:12:49.236Z,50.806
2022-08-21T11:13:57.513Z,51.028999
2022-08-21T11:15:06.072Z,51.182999
2022-08-21T11:16:16.610Z,51.438999
2022-08-21T11:17:25.156Z,51.412998
2022-08-21T11:18:33.710Z,51.418999
2022-08-21T11:19:42.378Z,51.320999
